sensor_id;sensor_type;location;lat;lon;timestamp;pressure;altitude;pressure_sealevel;temperature;humidity
70684;BME280;58263;48.146;11.440;2022-09-21T00:00:51;96385.13;;;7.69;71.45
70684;BME280;58263;48.146;11.440;2022-09-21T00:03:16;96401.81;;;7.42;72.23
70684;BME280;58263;48.146;11.440;2022-09-21T00:05:42;96389.56;;;7.55;71.94
70684;BME280;58263;48.146;11.440;2022-09-21T00:08:09;96396.91;;;7.46;72.55
70684;BME280;58263;48.146;11.440;2022-09-21T00:10:35;96399.69;;;7.31;73.39
70684;BME280;58263;48.146;11.440;2022-09-21T00:13:00;96390.38;;;7.49;72.85
70684;BME280;58263;48.146;11.440;2022-09-21T00:15:29;96390.72;;;7.45;72.18
70684;BME280;58263;48.146;11.440;2022-09-21T00:17:56;96402.50;;;7.23;73.43
70684;BME280;58263;48.146;11.440;2022-09-21T00:20:23;96391.09;;;7.14;73.61
70684;BME280;58263;48.146;11.440;2022-09-21T00:22:49;96391.41;;;7.26;73.18
70684;BME280;58263;48.146;11.440;2022-09-21T00:25:15;96391.28;;;7.34;72.25
70684;BME280;58263;48.146;11.440;2022-09-21T00:27:41;96395.56;;;7.28;72.66
70684;BME280;58263;48.146;11.440;2022-09-21T00:30:07;96397.25;;;7.36;72.06
70684;BME280;58263;48.146;11.440;2022-09-21T00:32:35;96388.47;;;7.42;71.98
70684;BME280;58263;48.146;11.440;2022-09-21T00:35:02;96394.34;;;7.31;72.09
70684;BME280;58263;48.146;11.440;2022-09-21T00:37:28;96391.28;;;7.34;71.45
70684;BME280;58263;48.146;11.440;2022-09-21T00:39:54;96399.13;;;7.42;70.88
70684;BME280;58263;48.146;11.440;2022-09-21T00:42:22;96398.50;;;7.12;72.20
70684;BME280;58263;48.146;11.440;2022-09-21T00:44:48;96391.16;;;7.21;71.47
70684;BME280;58263;48.146;11.440;2022-09-21T00:47:22;96401.84;;;6.99;72.83
70684;BME280;58263;48.146;11.440;2022-09-21T00:49:53;96396.72;;;6.76;73.35
70684;BME280;58263;48.146;11.440;2022-09-21T00:52:21;96396.16;;;6.81;73.66
70684;BME280;58263;48.146;11.440;2022-09-21T00:57:17;96394.16;;;7.11;71.99
70684;BME280;58263;48.146;11.440;2022-09-21T00:59:44;96391.94;;;7.15;71.54
70684;BME280;58263;48.146;11.440;2022-09-21T01:02:10;96395.44;;;7.15;71.15
70684;BME280;58263;48.146;11.440;2022-09-21T01:04:37;96397.91;;;7.17;71.30
70684;BME280;58263;48.146;11.440;2022-09-21T01:07:05;96393.72;;;7.07;71.16
70684;BME280;58263;48.146;11.440;2022-09-21T01:09:32;96396.66;;;7.13;70.91
70684;BME280;58263;48.146;11.440;2022-09-21T01:20:57;96391.31;;;6.91;71.96
70684;BME280;58263;48.146;11.440;2022-09-21T01:26:29;96395.38;;;6.87;71.86
70684;BME280;58263;48.146;11.440;2022-09-21T01:31:41;96390.84;;;6.81;72.24
70684;BME280;58263;48.146;11.440;2022-09-21T01:34:13;96384.50;;;6.82;71.75
70684;BME280;58263;48.146;11.440;2022-09-21T01:36:41;96384.91;;;6.85;71.38
70684;BME280;58263;48.146;11.440;2022-09-21T01:39:10;96387.38;;;6.87;71.13
70684;BME280;58263;48.146;11.440;2022-09-21T01:41:39;96391.31;;;6.69;72.17
70684;BME280;58263;48.146;11.440;2022-09-21T01:44:06;96393.75;;;6.64;72.49
70684;BME280;58263;48.146;11.440;2022-09-21T01:46:33;96388.41;;;6.64;72.18
70684;BME280;58263;48.146;11.440;2022-09-21T01:49:05;96387.38;;;6.65;72.11
70684;BME280;58263;48.146;11.440;2022-09-21T01:51:33;96386.44;;;6.73;70.84
70684;BME280;58263;48.146;11.440;2022-09-21T01:54:07;96395.19;;;6.45;72.54
70684;BME280;58263;48.146;11.440;2022-09-21T01:56:39;96394.34;;;6.45;72.97
70684;BME280;58263;48.146;11.440;2022-09-21T01:59:15;96392.63;;;6.37;73.40
70684;BME280;58263;48.146;11.440;2022-09-21T02:02:14;96390.00;;;6.22;73.98
70684;BME280;58263;48.146;11.440;2022-09-21T02:04:40;96391.97;;;6.35;73.32
70684;BME280;58263;48.146;11.440;2022-09-21T02:07:06;96392.31;;;6.47;72.22
70684;BME280;58263;48.146;11.440;2022-09-21T02:09:34;96395.75;;;6.25;73.05
70684;BME280;58263;48.146;11.440;2022-09-21T02:12:02;96390.28;;;6.49;72.04
70684;BME280;58263;48.146;11.440;2022-09-21T02:14:28;96393.97;;;6.48;71.52
70684;BME280;58263;48.146;11.440;2022-09-21T02:19:56;96390.91;;;6.29;71.98
70684;BME280;58263;48.146;11.440;2022-09-21T02:25:36;96386.03;;;6.33;72.01
70684;BME280;58263;48.146;11.440;2022-09-21T02:28:16;96394.25;;;6.38;71.69
70684;BME280;58263;48.146;11.440;2022-09-21T02:30:56;96389.59;;;6.40;71.46
70684;BME280;58263;48.146;11.440;2022-09-21T02:34:31;96390.41;;;6.40;71.01
70684;BME280;58263;48.146;11.440;2022-09-21T02:36:34;96391.44;;;6.39;71.28
70684;BME280;58263;48.146;11.440;2022-09-21T02:39:10;96401.16;;;6.32;71.64
70684;BME280;58263;48.146;11.440;2022-09-21T02:41:52;96395.84;;;6.32;71.60
70684;BME280;58263;48.146;11.440;2022-09-21T02:44:31;96389.91;;;6.30;71.24
70684;BME280;58263;48.146;11.440;2022-09-21T02:47:03;96401.16;;;6.32;71.36
70684;BME280;58263;48.146;11.440;2022-09-21T02:49:38;96396.22;;;6.29;71.37
70684;BME280;58263;48.146;11.440;2022-09-21T02:52:10;96398.63;;;5.94;72.91
70684;BME280;58263;48.146;11.440;2022-09-21T02:54:38;96396.16;;;6.07;72.24
70684;BME280;58263;48.146;11.440;2022-09-21T02:57:04;96402.78;;;6.12;71.75
70684;BME280;58263;48.146;11.440;2022-09-21T02:59:31;96395.06;;;6.17;71.70
70684;BME280;58263;48.146;11.440;2022-09-21T03:01:57;96396.63;;;6.11;71.90
70684;BME280;58263;48.146;11.440;2022-09-21T03:04:23;96404.78;;;5.95;72.53
70684;BME280;58263;48.146;11.440;2022-09-21T03:06:48;96394.97;;;5.95;72.78
70684;BME280;58263;48.146;11.440;2022-09-21T03:09:14;96396.06;;;5.86;72.91
70684;BME280;58263;48.146;11.440;2022-09-21T03:11:39;96399.28;;;5.96;72.38
70684;BME280;58263;48.146;11.440;2022-09-21T03:14:07;96392.88;;;6.05;71.74
70684;BME280;58263;48.146;11.440;2022-09-21T03:16:36;96406.91;;;5.99;71.89
70684;BME280;58263;48.146;11.440;2022-09-21T03:19:02;96396.72;;;5.88;72.43
70684;BME280;58263;48.146;11.440;2022-09-21T03:21:27;96399.72;;;5.85;72.42
70684;BME280;58263;48.146;11.440;2022-09-21T03:23:53;96400.09;;;5.82;72.21
70684;BME280;58263;48.146;11.440;2022-09-21T03:26:19;96402.22;;;5.71;72.62
70684;BME280;58263;48.146;11.440;2022-09-21T03:28:47;96406.97;;;5.61;73.34
70684;BME280;58263;48.146;11.440;2022-09-21T03:31:13;96399.66;;;5.63;73.39
70684;BME280;58263;48.146;11.440;2022-09-21T03:33:38;96408.75;;;5.69;73.10
70684;BME280;58263;48.146;11.440;2022-09-21T03:36:03;96402.13;;;5.80;72.33
70684;BME280;58263;48.146;11.440;2022-09-21T03:38:29;96399.66;;;5.78;72.47
70684;BME280;58263;48.146;11.440;2022-09-21T03:40:54;96403.75;;;5.81;72.16
70684;BME280;58263;48.146;11.440;2022-09-21T03:43:22;96402.13;;;5.80;71.60
70684;BME280;58263;48.146;11.440;2022-09-21T03:45:47;96402.22;;;5.86;71.18
70684;BME280;58263;48.146;11.440;2022-09-21T03:48:13;96402.22;;;5.56;72.88
70684;BME280;58263;48.146;11.440;2022-09-21T03:50:40;96405.41;;;5.52;73.36
70684;BME280;58263;48.146;11.440;2022-09-21T03:53:05;96405.22;;;5.38;73.35
70684;BME280;58263;48.146;11.440;2022-09-21T03:55:31;96408.91;;;5.37;73.30
70684;BME280;58263;48.146;11.440;2022-09-21T03:57:57;96413.09;;;5.47;73.32
70684;BME280;58263;48.146;11.440;2022-09-21T04:00:23;96407.44;;;5.50;72.79
70684;BME280;58263;48.146;11.440;2022-09-21T04:02:48;96406.78;;;5.63;72.14
70684;BME280;58263;48.146;11.440;2022-09-21T04:05:15;96407.72;;;5.55;72.49
70684;BME280;58263;48.146;11.440;2022-09-21T04:07:41;96406.34;;;5.59;72.49
70684;BME280;58263;48.146;11.440;2022-09-21T04:10:09;96404.22;;;5.54;72.27
70684;BME280;58263;48.146;11.440;2022-09-21T04:12:42;96411.22;;;5.55;72.56
70684;BME280;58263;48.146;11.440;2022-09-21T04:15:10;96414.97;;;5.61;72.12
70684;BME280;58263;48.146;11.440;2022-09-21T04:17:35;96417.44;;;5.48;72.47
70684;BME280;58263;48.146;11.440;2022-09-21T04:20:01;96412.06;;;5.33;73.01
70684;BME280;58263;48.146;11.440;2022-09-21T04:22:26;96410.50;;;5.08;74.24
70684;BME280;58263;48.146;11.440;2022-09-21T04:24:51;96412.13;;;5.10;74.20
70684;BME280;58263;48.146;11.440;2022-09-21T04:27:17;96417.22;;;5.34;73.12
70684;BME280;58263;48.146;11.440;2022-09-21T04:29:43;96415.19;;;5.21;73.27
70684;BME280;58263;48.146;11.440;2022-09-21T04:32:09;96414.28;;;5.29;73.24
70684;BME280;58263;48.146;11.440;2022-09-21T04:34:35;96411.53;;;5.22;73.49
70684;BME280;58263;48.146;11.440;2022-09-21T04:37:02;96415.59;;;5.33;72.68
70684;BME280;58263;48.146;11.440;2022-09-21T04:39:27;96417.78;;;5.30;72.92
70684;BME280;58263;48.146;11.440;2022-09-21T04:41:52;96419.25;;;5.32;72.47
70684;BME280;58263;48.146;11.440;2022-09-21T04:44:18;96429.97;;;5.24;73.04
70684;BME280;58263;48.146;11.440;2022-09-21T04:46:44;96424.75;;;5.31;72.80
70684;BME280;58263;48.146;11.440;2022-09-21T04:49:09;96434.44;;;5.23;72.32
70684;BME280;58263;48.146;11.440;2022-09-21T04:51:34;96431.50;;;5.18;72.63
70684;BME280;58263;48.146;11.440;2022-09-21T04:54:00;96432.09;;;5.05;73.59
70684;BME280;58263;48.146;11.440;2022-09-21T04:56:26;96437.41;;;5.05;73.20
70684;BME280;58263;48.146;11.440;2022-09-21T04:58:51;96431.75;;;5.08;72.88
70684;BME280;58263;48.146;11.440;2022-09-21T05:01:16;96439.75;;;5.08;73.91
70684;BME280;58263;48.146;11.440;2022-09-21T05:03:41;96445.81;;;4.94;73.65
70684;BME280;58263;48.146;11.440;2022-09-21T05:06:08;96449.72;;;5.06;73.24
70684;BME280;58263;48.146;11.440;2022-09-21T05:08:38;96448.66;;;5.16;72.86
70684;BME280;58263;48.146;11.440;2022-09-21T05:11:22;96452.41;;;5.21;72.73
70684;BME280;58263;48.146;11.440;2022-09-21T05:13:47;96452.91;;;5.25;72.28
70684;BME280;58263;48.146;11.440;2022-09-21T05:16:16;96453.16;;;5.30;72.22
70684;BME280;58263;48.146;11.440;2022-09-21T05:18:42;96452.16;;;5.31;72.15
70684;BME280;58263;48.146;11.440;2022-09-21T05:21:10;96451.06;;;5.25;72.29
70684;BME280;58263;48.146;11.440;2022-09-21T05:23:35;96449.88;;;5.28;72.27
70684;BME280;58263;48.146;11.440;2022-09-21T05:26:01;96457.84;;;5.28;72.08
70684;BME280;58263;48.146;11.440;2022-09-21T05:28:27;96447.84;;;5.30;71.84
70684;BME280;58263;48.146;11.440;2022-09-21T05:33:34;96451.00;;;5.11;73.27
70684;BME280;58263;48.146;11.440;2022-09-21T05:38:51;96451.00;;;5.11;74.34
70684;BME280;58263;48.146;11.440;2022-09-21T05:41:17;96448.66;;;5.16;74.09
70684;BME280;58263;48.146;11.440;2022-09-21T05:43:42;96453.06;;;5.23;73.65
70684;BME280;58263;48.146;11.440;2022-09-21T05:46:41;96455.41;;;5.41;73.01
70684;BME280;58263;48.146;11.440;2022-09-21T05:52:11;96457.47;;;5.31;74.25
70684;BME280;58263;48.146;11.440;2022-09-21T05:57:40;96463.25;;;5.58;73.60
70684;BME280;58263;48.146;11.440;2022-09-21T06:02:56;96462.47;;;5.49;75.34
70684;BME280;58263;48.146;11.440;2022-09-21T06:05:26;96464.59;;;5.54;75.42
70684;BME280;58263;48.146;11.440;2022-09-21T06:07:51;96467.13;;;5.70;74.94
70684;BME280;58263;48.146;11.440;2022-09-21T06:10:17;96468.03;;;5.78;74.71
70684;BME280;58263;48.146;11.440;2022-09-21T06:12:42;96475.00;;;5.79;75.15
70684;BME280;58263;48.146;11.440;2022-09-21T06:15:11;96470.22;;;5.89;74.40
70684;BME280;58263;48.146;11.440;2022-09-21T06:17:37;96478.22;;;5.89;75.20
70684;BME280;58263;48.146;11.440;2022-09-21T06:20:03;96477.63;;;6.02;75.11
70684;BME280;58263;48.146;11.440;2022-09-21T06:22:30;96469.81;;;6.15;75.53
70684;BME280;58263;48.146;11.440;2022-09-21T06:24:55;96475.88;;;6.24;75.33
70684;BME280;58263;48.146;11.440;2022-09-21T06:27:21;96476.44;;;6.34;76.07
70684;BME280;58263;48.146;11.440;2022-09-21T06:29:46;96476.69;;;6.39;75.91
70684;BME280;58263;48.146;11.440;2022-09-21T06:32:11;96480.59;;;6.58;75.22
70684;BME280;58263;48.146;11.440;2022-09-21T06:34:37;96479.94;;;6.71;75.31
70684;BME280;58263;48.146;11.440;2022-09-21T06:37:02;96483.75;;;6.84;75.15
70684;BME280;58263;48.146;11.440;2022-09-21T06:39:28;96488.59;;;6.95;74.75
70684;BME280;58263;48.146;11.440;2022-09-21T06:41:53;96485.44;;;7.06;75.12
70684;BME280;58263;48.146;11.440;2022-09-21T06:44:19;96493.56;;;7.20;74.66
70684;BME280;58263;48.146;11.440;2022-09-21T06:46:44;96494.59;;;7.40;74.49
70684;BME280;58263;48.146;11.440;2022-09-21T06:49:09;96493.13;;;7.59;74.11
70684;BME280;58263;48.146;11.440;2022-09-21T06:51:34;96483.31;;;7.67;74.04
70684;BME280;58263;48.146;11.440;2022-09-21T06:54:00;96493.94;;;7.88;73.59
70684;BME280;58263;48.146;11.440;2022-09-21T06:56:25;96488.09;;;8.06;73.61
70684;BME280;58263;48.146;11.440;2022-09-21T06:58:51;96493.13;;;8.23;73.28
70684;BME280;58263;48.146;11.440;2022-09-21T07:01:17;96487.06;;;8.42;72.91
70684;BME280;58263;48.146;11.440;2022-09-21T07:03:43;96486.38;;;8.62;72.29
70684;BME280;58263;48.146;11.440;2022-09-21T07:06:10;96485.19;;;8.85;71.67
70684;BME280;58263;48.146;11.440;2022-09-21T07:08:40;96478.47;;;9.09;71.24
70684;BME280;58263;48.146;11.440;2022-09-21T07:11:06;96482.03;;;9.36;70.83
70684;BME280;58263;48.146;11.440;2022-09-21T07:13:31;96481.41;;;9.61;70.26
70684;BME280;58263;48.146;11.440;2022-09-21T07:15:57;96480.41;;;9.82;70.00
70684;BME280;58263;48.146;11.440;2022-09-21T07:18:22;96474.16;;;10.08;69.92
70684;BME280;58263;48.146;11.440;2022-09-21T07:20:47;96489.41;;;10.35;69.14
70684;BME280;58263;48.146;11.440;2022-09-21T07:23:15;96479.63;;;10.60;67.89
70684;BME280;58263;48.146;11.440;2022-09-21T07:25:42;96484.25;;;10.85;67.43
70684;BME280;58263;48.146;11.440;2022-09-21T07:28:12;96481.03;;;11.08;66.16
70684;BME280;58263;48.146;11.440;2022-09-21T07:30:38;96480.72;;;11.30;66.05
70684;BME280;58263;48.146;11.440;2022-09-21T07:33:04;96480.59;;;11.50;65.59
70684;BME280;58263;48.146;11.440;2022-09-21T07:35:30;96478.34;;;11.72;64.64
70684;BME280;58263;48.146;11.440;2022-09-21T07:38:00;96483.16;;;11.89;63.70
70684;BME280;58263;48.146;11.440;2022-09-21T07:40:26;96487.19;;;12.05;62.68
70684;BME280;58263;48.146;11.440;2022-09-21T07:42:51;96485.75;;;12.27;61.84
70684;BME280;58263;48.146;11.440;2022-09-21T07:45:17;96486.69;;;12.51;61.87
70684;BME280;58263;48.146;11.440;2022-09-21T07:47:42;96485.28;;;12.67;59.94
70684;BME280;58263;48.146;11.440;2022-09-21T07:50:08;96478.47;;;12.83;60.31
70684;BME280;58263;48.146;11.440;2022-09-21T07:52:33;96474.38;;;13.11;59.51
70684;BME280;58263;48.146;11.440;2022-09-21T07:54:59;96486.16;;;13.29;58.55
70684;BME280;58263;48.146;11.440;2022-09-21T07:57:24;96483.41;;;13.35;58.71
70684;BME280;58263;48.146;11.440;2022-09-21T08:00:08;96485.69;;;13.62;58.25
70684;BME280;58263;48.146;11.440;2022-09-21T08:02:34;96485.34;;;13.82;58.66
70684;BME280;58263;48.146;11.440;2022-09-21T08:04:59;96489.13;;;13.93;56.97
70684;BME280;58263;48.146;11.440;2022-09-21T08:07:25;96479.88;;;14.13;56.01
70684;BME280;58263;48.146;11.440;2022-09-21T08:09:52;96478.00;;;14.37;55.50
70684;BME280;58263;48.146;11.440;2022-09-21T08:12:18;96481.84;;;14.65;55.10
70684;BME280;58263;48.146;11.440;2022-09-21T08:14:45;96484.88;;;14.80;53.63
70684;BME280;58263;48.146;11.440;2022-09-21T08:17:10;96478.13;;;14.95;53.00
70684;BME280;58263;48.146;11.440;2022-09-21T08:19:35;96477.47;;;15.16;52.60
70684;BME280;58263;48.146;11.440;2022-09-21T08:22:01;96480.50;;;15.20;52.28
70684;BME280;58263;48.146;11.440;2022-09-21T08:24:26;96476.06;;;15.43;52.12
70684;BME280;58263;48.146;11.440;2022-09-21T08:26:52;96479.34;;;15.62;51.32
70684;BME280;58263;48.146;11.440;2022-09-21T08:29:17;96488.81;;;15.76;50.35
70684;BME280;58263;48.146;11.440;2022-09-21T08:31:43;96491.69;;;15.86;50.87
70684;BME280;58263;48.146;11.440;2022-09-21T08:34:08;96481.03;;;16.14;49.96
70684;BME280;58263;48.146;11.440;2022-09-21T08:36:33;96485.13;;;16.33;48.81
70684;BME280;58263;48.146;11.440;2022-09-21T08:38:59;96485.59;;;16.47;48.28
70684;BME280;58263;48.146;11.440;2022-09-21T08:44:32;96489.09;;;15.92;47.43
70684;BME280;58263;48.146;11.440;2022-09-21T08:47:21;96494.34;;;15.98;47.47
70684;BME280;58263;48.146;11.440;2022-09-21T08:49:56;96490.22;;;16.13;45.92
70684;BME280;58263;48.146;11.440;2022-09-21T08:52:23;96491.34;;;16.34;46.67
70684;BME280;58263;48.146;11.440;2022-09-21T08:57:36;96490.75;;;16.71;45.52
70684;BME280;58263;48.146;11.440;2022-09-21T09:00:06;96487.09;;;16.99;46.07
70684;BME280;58263;48.146;11.440;2022-09-21T09:16:50;96474.81;;;17.46;43.89
70684;BME280;58263;48.146;11.440;2022-09-21T09:19:47;96476.91;;;17.94;42.30
70684;BME280;58263;48.146;11.440;2022-09-21T09:22:20;96477.81;;;18.47;40.28
70684;BME280;58263;48.146;11.440;2022-09-21T09:24:50;96474.47;;;18.35;42.00
70684;BME280;58263;48.146;11.440;2022-09-21T09:27:33;96478.88;;;18.41;40.47
70684;BME280;58263;48.146;11.440;2022-09-21T09:30:14;96475.22;;;18.25;40.64
70684;BME280;58263;48.146;11.440;2022-09-21T09:35:15;96483.59;;;17.86;41.37
70684;BME280;58263;48.146;11.440;2022-09-21T09:37:44;96471.16;;;18.22;40.42
70684;BME280;58263;48.146;11.440;2022-09-21T09:40:12;96478.28;;;17.96;40.77
70684;BME280;58263;48.146;11.440;2022-09-21T09:42:52;96468.47;;;18.28;40.57
70684;BME280;58263;48.146;11.440;2022-09-21T09:50:33;96464.81;;;18.12;39.08
70684;BME280;58263;48.146;11.440;2022-09-21T09:53:13;96461.91;;;18.23;38.86
70684;BME280;58263;48.146;11.440;2022-09-21T09:55:59;96458.53;;;18.97;37.60
70684;BME280;58263;48.146;11.440;2022-09-21T09:58:36;96456.97;;;19.27;37.53
70684;BME280;58263;48.146;11.440;2022-09-21T10:01:03;96448.34;;;19.61;38.14
70684;BME280;58263;48.146;11.440;2022-09-21T10:03:29;96448.03;;;19.72;36.88
70684;BME280;58263;48.146;11.440;2022-09-21T10:05:54;96444.47;;;20.39;36.48
70684;BME280;58263;48.146;11.440;2022-09-21T10:11:10;96430.03;;;21.14;34.22
70684;BME280;58263;48.146;11.440;2022-09-21T10:13:46;96431.06;;;21.23;34.60
70684;BME280;58263;48.146;11.440;2022-09-21T10:16:22;96441.06;;;21.83;34.22
70684;BME280;58263;48.146;11.440;2022-09-21T10:18:48;96436.59;;;21.58;33.08
70684;BME280;58263;48.146;11.440;2022-09-21T10:21:38;96430.16;;;21.38;33.03
70684;BME280;58263;48.146;11.440;2022-09-21T10:24:35;96437.16;;;20.14;33.49
70684;BME280;58263;48.146;11.440;2022-09-21T10:27:10;96427.13;;;21.45;32.47
70684;BME280;58263;48.146;11.440;2022-09-21T10:29:42;96426.03;;;21.86;31.91
70684;BME280;58263;48.146;11.440;2022-09-21T10:34:36;96417.94;;;20.81;33.17
70684;BME280;58263;48.146;11.440;2022-09-21T10:37:26;96413.47;;;24.20;29.16
70684;BME280;58263;48.146;11.440;2022-09-21T10:39:52;96412.84;;;24.23;29.53
70684;BME280;58263;48.146;11.440;2022-09-21T10:42:18;96410.88;;;23.01;32.23
70684;BME280;58263;48.146;11.440;2022-09-21T10:44:44;96412.81;;;22.76;30.09
70684;BME280;58263;48.146;11.440;2022-09-21T10:49:46;96403.72;;;22.32;30.28
70684;BME280;58263;48.146;11.440;2022-09-21T10:52:12;96409.25;;;24.84;27.23
70684;BME280;58263;48.146;11.440;2022-09-21T10:54:38;96419.16;;;26.89;26.06
70684;BME280;58263;48.146;11.440;2022-09-21T10:57:14;96405.69;;;28.45;23.04
70684;BME280;58263;48.146;11.440;2022-09-21T10:59:40;96410.91;;;26.57;25.25
70684;BME280;58263;48.146;11.440;2022-09-21T11:02:35;96407.59;;;24.55;26.61
70684;BME280;58263;48.146;11.440;2022-09-21T11:05:07;96401.09;;;22.94;27.92
70684;BME280;58263;48.146;11.440;2022-09-21T11:07:40;96397.50;;;22.99;29.37
70684;BME280;58263;48.146;11.440;2022-09-21T11:10:13;96400.91;;;27.89;23.26
70684;BME280;58263;48.146;11.440;2022-09-21T11:18:29;96392.34;;;32.30;18.82
70684;BME280;58263;48.146;11.440;2022-09-21T11:21:17;96402.84;;;34.30;15.87
70684;BME280;58263;48.146;11.440;2022-09-21T11:26:49;96385.25;;;34.73;15.37
70684;BME280;58263;48.146;11.440;2022-09-21T11:35:28;96371.56;;;36.01;14.34
70684;BME280;58263;48.146;11.440;2022-09-21T11:38:25;96375.78;;;33.49;16.55
70684;BME280;58263;48.146;11.440;2022-09-21T11:41:04;96368.34;;;32.69;17.80
70684;BME280;58263;48.146;11.440;2022-09-21T11:46:23;96370.94;;;32.62;17.35
70684;BME280;58263;48.146;11.440;2022-09-21T11:54:50;96358.53;;;34.45;15.38
70684;BME280;58263;48.146;11.440;2022-09-21T12:00:02;96346.09;;;36.10;14.16
70684;BME280;58263;48.146;11.440;2022-09-21T12:13:37;96340.03;;;36.91;12.60
70684;BME280;58263;48.146;11.440;2022-09-21T12:16:26;96337.75;;;36.55;13.04
70684;BME280;58263;48.146;11.440;2022-09-21T12:19:04;96338.44;;;36.86;13.16
70684;BME280;58263;48.146;11.440;2022-09-21T12:21:36;96333.69;;;36.08;13.80
70684;BME280;58263;48.146;11.440;2022-09-21T12:26:42;96326.19;;;36.57;13.19
70684;BME280;58263;48.146;11.440;2022-09-21T12:29:29;96325.94;;;35.56;13.61
70684;BME280;58263;48.146;11.440;2022-09-21T12:32:10;96325.78;;;35.76;13.59
70684;BME280;58263;48.146;11.440;2022-09-21T12:34:41;96325.41;;;36.56;12.76
70684;BME280;58263;48.146;11.440;2022-09-21T12:37:37;96333.56;;;37.42;12.93
70684;BME280;58263;48.146;11.440;2022-09-21T12:40:30;96328.44;;;36.85;12.62
70684;BME280;58263;48.146;11.440;2022-09-21T12:43:19;96319.63;;;37.53;12.77
70684;BME280;58263;48.146;11.440;2022-09-21T12:45:52;96315.84;;;36.61;12.84
70684;BME280;58263;48.146;11.440;2022-09-21T12:48:45;96321.66;;;36.90;12.00
70684;BME280;58263;48.146;11.440;2022-09-21T12:53:46;96308.06;;;33.06;15.82
70684;BME280;58263;48.146;11.440;2022-09-21T13:07:32;96309.66;;;31.22;17.04
70684;BME280;58263;48.146;11.440;2022-09-21T13:10:10;96315.03;;;28.86;18.92
70684;BME280;58263;48.146;11.440;2022-09-21T13:12:41;96309.19;;;27.19;21.10
70684;BME280;58263;48.146;11.440;2022-09-21T13:15:23;96312.44;;;27.47;19.92
70684;BME280;58263;48.146;11.440;2022-09-21T13:18:17;96311.91;;;30.92;17.77
70684;BME280;58263;48.146;11.440;2022-09-21T13:20:43;96312.00;;;31.77;16.39
70684;BME280;58263;48.146;11.440;2022-09-21T13:23:17;96313.28;;;32.40;15.40
70684;BME280;58263;48.146;11.440;2022-09-21T13:25:57;96308.13;;;30.84;16.90
70684;BME280;58263;48.146;11.440;2022-09-21T13:28:39;96302.06;;;32.36;15.68
70684;BME280;58263;48.146;11.440;2022-09-21T13:44:57;96286.41;;;27.92;19.51
70684;BME280;58263;48.146;11.440;2022-09-21T13:47:30;96289.06;;;28.18;19.09
70684;BME280;58263;48.146;11.440;2022-09-21T13:49:57;96280.50;;;27.20;20.16
70684;BME280;58263;48.146;11.440;2022-09-21T13:52:46;96281.22;;;26.50;21.57
70684;BME280;58263;48.146;11.440;2022-09-21T13:55:36;96278.25;;;25.57;21.97
70684;BME280;58263;48.146;11.440;2022-09-21T13:58:40;96272.38;;;25.50;22.56
70684;BME280;58263;48.146;11.440;2022-09-21T14:01:12;96278.63;;;26.45;22.59
70684;BME280;58263;48.146;11.440;2022-09-21T14:03:43;96274.56;;;28.60;19.23
70684;BME280;58263;48.146;11.440;2022-09-21T14:06:22;96266.53;;;29.39;18.81
70684;BME280;58263;48.146;11.440;2022-09-21T14:11:27;96270.16;;;30.10;18.13
70684;BME280;58263;48.146;11.440;2022-09-21T14:18:59;96270.59;;;30.87;17.00
70684;BME280;58263;48.146;11.440;2022-09-21T14:21:25;96261.75;;;30.44;16.83
70684;BME280;58263;48.146;11.440;2022-09-21T14:31:42;96266.25;;;25.85;21.30
70684;BME280;58263;48.146;11.440;2022-09-21T14:34:18;96266.00;;;24.95;22.64
70684;BME280;58263;48.146;11.440;2022-09-21T14:36:49;96257.84;;;24.68;22.83
70684;BME280;58263;48.146;11.440;2022-09-21T14:39:19;96263.69;;;24.89;22.60
70684;BME280;58263;48.146;11.440;2022-09-21T14:41:48;96266.72;;;27.20;20.36
70684;BME280;58263;48.146;11.440;2022-09-21T14:44:23;96268.53;;;28.37;18.98
70684;BME280;58263;48.146;11.440;2022-09-21T14:50:13;96256.97;;;28.73;18.56
70684;BME280;58263;48.146;11.440;2022-09-21T14:52:54;96250.50;;;28.90;18.51
70684;BME280;58263;48.146;11.440;2022-09-21T14:55:41;96261.22;;;28.41;19.05
70684;BME280;58263;48.146;11.440;2022-09-21T14:58:25;96253.97;;;25.28;21.82
70684;BME280;58263;48.146;11.440;2022-09-21T15:01:18;96251.09;;;23.95;23.74
70684;BME280;58263;48.146;11.440;2022-09-21T15:04:11;96258.00;;;23.46;25.05
70684;BME280;58263;48.146;11.440;2022-09-21T15:12:57;96251.97;;;26.63;19.76
70684;BME280;58263;48.146;11.440;2022-09-21T15:15:51;96246.81;;;26.04;20.91
70684;BME280;58263;48.146;11.440;2022-09-21T15:18:22;96242.63;;;23.64;24.24
70684;BME280;58263;48.146;11.440;2022-09-21T15:21:00;96248.03;;;22.84;25.34
70684;BME280;58263;48.146;11.440;2022-09-21T15:23:52;96247.16;;;22.70;26.00
70684;BME280;58263;48.146;11.440;2022-09-21T15:26:23;96248.78;;;24.03;23.33
70684;BME280;58263;48.146;11.440;2022-09-21T15:28:56;96239.47;;;24.68;22.78
70684;BME280;58263;48.146;11.440;2022-09-21T15:31:22;96242.03;;;23.81;23.38
70684;BME280;58263;48.146;11.440;2022-09-21T15:33:48;96232.91;;;22.35;25.43
70684;BME280;58263;48.146;11.440;2022-09-21T15:36:24;96244.53;;;21.43;26.32
70684;BME280;58263;48.146;11.440;2022-09-21T15:38:52;96241.59;;;20.66;27.58
70684;BME280;58263;48.146;11.440;2022-09-21T15:44:13;96236.25;;;19.85;29.21
70684;BME280;58263;48.146;11.440;2022-09-21T15:46:40;96233.09;;;19.31;30.67
70684;BME280;58263;48.146;11.440;2022-09-21T15:49:14;96238.56;;;19.16;30.83
70684;BME280;58263;48.146;11.440;2022-09-21T15:51:43;96252.97;;;18.90;31.68
70684;BME280;58263;48.146;11.440;2022-09-21T15:54:28;96239.06;;;18.61;31.54
70684;BME280;58263;48.146;11.440;2022-09-21T15:56:59;96236.03;;;18.42;32.25
70684;BME280;58263;48.146;11.440;2022-09-21T15:59:25;96241.94;;;18.18;32.81
70684;BME280;58263;48.146;11.440;2022-09-21T16:01:54;96245.66;;;17.97;33.79